createdAt,value
2023-01-28T00:01:50.153Z,0.70
2023-01-28T00:04:18.523Z,0.60
2023-01-28T00:06:47.388Z,0.60
2023-01-28T00:09:17.458Z,0.70
2023-01-28T00:11:45.921Z,0.60
2023-01-28T00:14:15.250Z,0.50
2023-01-28T00:16:43.922Z,0.40
2023-01-28T00:19:15.644Z,0.40
2023-01-28T00:21:44.149Z,0.30
2023-01-28T00:31:17.631Z,0.00
2023-01-28T00:33:46.866Z,-0.20
2023-01-28T00:36:16.162Z,-0.20
2023-01-28T00:38:44.863Z,-0.20
2023-01-28T00:41:14.959Z,-0.20
2023-01-28T00:43:45.868Z,-0.20
2023-01-28T00:46:15.030Z,-0.20
2023-01-28T00:48:44.709Z,-0.20
2023-01-28T00:51:15.012Z,-0.20
2023-01-28T00:53:43.482Z,-0.20
2023-01-28T00:56:15.391Z,-0.30
2023-01-28T00:58:46.470Z,-0.50
2023-01-28T01:01:21.870Z,-0.50
2023-01-28T01:03:57.660Z,-0.50
2023-01-28T01:06:27.149Z,-0.40
2023-01-28T01:08:55.624Z,-0.40
2023-01-28T01:11:24.943Z,-0.40
2023-01-28T01:13:57.187Z,-0.40
2023-01-28T01:16:29.986Z,-0.40
2023-01-28T01:18:59.377Z,-0.40
2023-01-28T01:21:42.939Z,-0.40
2023-01-28T01:24:11.412Z,-0.40
2023-01-28T01:26:39.817Z,-0.40
2023-01-28T01:29:10.326Z,-0.40
2023-01-28T01:31:41.611Z,-0.40
2023-01-28T01:34:11.270Z,-0.40
2023-01-28T01:36:39.709Z,-0.50
2023-01-28T01:39:08.221Z,-0.60
2023-01-28T01:41:36.798Z,-0.60
2023-01-28T01:44:40.862Z,-0.60
2023-01-28T01:47:11.559Z,-0.70
2023-01-28T01:49:40.173Z,-0.70
2023-01-28T01:52:13.168Z,-0.70
2023-01-28T01:54:44.536Z,-0.70
2023-01-28T01:57:17.161Z,-0.60
2023-01-28T01:59:45.979Z,-0.70
2023-01-28T02:02:16.011Z,-0.70
2023-01-28T02:04:54.290Z,-0.90
2023-01-28T02:07:22.831Z,-0.90
2023-01-28T02:09:51.350Z,-1.00
2023-01-28T02:12:23.837Z,-1.00
2023-01-28T02:14:57.599Z,-1.00
2023-01-28T02:17:28.139Z,-1.00
2023-01-28T02:20:00.278Z,-1.00
2023-01-28T02:22:50.609Z,-1.00
2023-01-28T02:25:44.357Z,-0.90
2023-01-28T02:28:25.666Z,-0.90
2023-01-28T02:31:00.050Z,-1.00
2023-01-28T02:33:35.863Z,-0.90
2023-01-28T02:36:15.088Z,-0.90
2023-01-28T02:38:48.063Z,-0.80
2023-01-28T02:41:22.779Z,-0.80
2023-01-28T02:43:52.830Z,-0.90
2023-01-28T02:46:57.521Z,-0.90
2023-01-28T02:49:30.630Z,-0.90
2023-01-28T02:52:16.150Z,-1.00
2023-01-28T02:54:54.778Z,-1.10
2023-01-28T02:57:34.684Z,-1.10
2023-01-28T03:00:12.284Z,-1.10
2023-01-28T03:02:47.386Z,-1.10
2023-01-28T03:05:22.534Z,-1.20
2023-01-28T03:08:25.141Z,-1.20
2023-01-28T03:11:12.331Z,-1.20
2023-01-28T03:13:58.820Z,-1.20
2023-01-28T03:16:48.749Z,-1.20
2023-01-28T03:19:36.688Z,-1.40
2023-01-28T03:22:23.938Z,-1.50
2023-01-28T03:25:12.938Z,-1.40
2023-01-28T03:28:06.858Z,-1.40
2023-01-28T03:30:59.413Z,-1.40
2023-01-28T03:33:47.859Z,-1.40
2023-01-28T03:36:34.179Z,-1.40
2023-01-28T03:39:03.143Z,-1.50
2023-01-28T03:41:31.708Z,-1.60
2023-01-28T03:44:17.604Z,-1.60
2023-01-28T03:46:46.091Z,-1.70
2023-01-28T03:49:17.069Z,-1.80
2023-01-28T03:51:51.348Z,-1.70
2023-01-28T03:54:19.839Z,-1.80
2023-01-28T03:56:49.197Z,-1.80
2023-01-28T03:59:17.678Z,-1.80
2023-01-28T04:01:46.134Z,-1.90
2023-01-28T04:04:23.250Z,-1.90
2023-01-28T04:06:52.380Z,-1.90
2023-01-28T04:09:21.120Z,-1.80
2023-01-28T04:11:50.758Z,-1.80
2023-01-28T04:14:19.248Z,-1.60
2023-01-28T04:16:47.820Z,-1.60
2023-01-28T04:19:17.758Z,-1.60
2023-01-28T04:21:46.188Z,-1.60
2023-01-28T04:24:15.030Z,-1.60
2023-01-28T04:26:44.030Z,-1.60
2023-01-28T04:29:12.621Z,-1.70
2023-01-28T04:31:41.067Z,-1.80
2023-01-28T04:34:21.126Z,-1.80
2023-01-28T04:36:49.550Z,-1.80
2023-01-28T04:39:18.049Z,-1.80
2023-01-28T04:41:46.578Z,-1.90
2023-01-28T04:44:16.858Z,-1.90
2023-01-28T04:46:45.392Z,-1.90
2023-01-28T04:49:13.849Z,-2.00
2023-01-28T04:51:43.745Z,-2.10
2023-01-28T04:54:12.242Z,-2.10
2023-01-28T04:56:59.633Z,-2.00
2023-01-28T04:59:46.800Z,-2.10
2023-01-28T05:02:33.896Z,-2.10
2023-01-28T05:05:04.959Z,-2.20
2023-01-28T05:07:34.869Z,-2.20
2023-01-28T05:10:03.318Z,-2.20
2023-01-28T05:12:33.166Z,-2.40
2023-01-28T05:15:01.891Z,-2.40
2023-01-28T05:17:30.818Z,-2.40
2023-01-28T05:19:59.398Z,-2.40
2023-01-28T05:22:27.899Z,-2.40
2023-01-28T05:24:58.999Z,-2.40
2023-01-28T05:27:27.419Z,-2.30
2023-01-28T05:29:55.832Z,-2.20
2023-01-28T05:32:24.312Z,-2.20
2023-01-28T05:34:52.801Z,-2.10
2023-01-28T05:37:22.334Z,-2.10
2023-01-28T05:39:50.768Z,-2.00
2023-01-28T05:42:22.625Z,-2.10
2023-01-28T05:44:51.067Z,-2.00
2023-01-28T05:47:20.655Z,-2.10
2023-01-28T05:49:49.188Z,-2.00
2023-01-28T05:52:17.579Z,-2.00
2023-01-28T05:54:46.037Z,-2.00
2023-01-28T05:57:14.523Z,-2.00
2023-01-28T05:59:44.343Z,-2.00
2023-01-28T06:02:12.894Z,-1.90
2023-01-28T06:04:41.491Z,-1.90
2023-01-28T06:07:09.923Z,-1.90
2023-01-28T06:09:41.532Z,-1.90
2023-01-28T06:12:10.047Z,-1.80
2023-01-28T06:14:38.450Z,-1.80
2023-01-28T06:17:08.339Z,-1.70
2023-01-28T06:19:36.801Z,-1.70
2023-01-28T06:22:05.468Z,-1.80
2023-01-28T06:24:34.028Z,-1.70
2023-01-28T06:27:02.518Z,-1.60
2023-01-28T06:29:30.927Z,-1.60
2023-01-28T06:32:19.796Z,-1.70
2023-01-28T06:34:48.406Z,-1.90
2023-01-28T06:37:17.289Z,-1.90
2023-01-28T06:39:45.749Z,-1.90
2023-01-28T06:42:14.224Z,-2.00
2023-01-28T06:44:42.690Z,-2.00
2023-01-28T06:47:11.165Z,-2.10
2023-01-28T06:49:41.080Z,-2.20
2023-01-28T06:52:09.598Z,-2.30
2023-01-28T06:54:38.099Z,-2.30
2023-01-28T06:57:06.699Z,-2.40
2023-01-28T06:59:35.123Z,-2.40
2023-01-28T07:02:03.622Z,-2.40
2023-01-28T07:04:33.118Z,-2.40
2023-01-28T07:07:02.949Z,-2.30
2023-01-28T07:09:31.417Z,-2.30
2023-01-28T07:11:59.878Z,-2.30
2023-01-28T07:14:28.523Z,-2.30
2023-01-28T07:17:02.820Z,-2.30
2023-01-28T07:19:31.267Z,-2.30
2023-01-28T07:22:01.023Z,-2.20
2023-01-28T07:24:31.360Z,-2.20
2023-01-28T07:26:59.855Z,-2.20
2023-01-28T07:29:28.278Z,-2.10
2023-01-28T07:31:56.739Z,-2.10
2023-01-28T07:34:25.540Z,-2.00
2023-01-28T07:36:55.253Z,-1.90
2023-01-28T07:39:25.978Z,-1.90
2023-01-28T07:41:55.899Z,-1.80
2023-01-28T07:44:24.387Z,-1.70
2023-01-28T07:46:52.900Z,-1.50
2023-01-28T07:49:21.548Z,-1.40
2023-01-28T07:51:51.114Z,-1.30
2023-01-28T07:54:19.538Z,-1.20
2023-01-28T07:56:48.077Z,-1.10
2023-01-28T07:59:17.990Z,-1.00
2023-01-28T08:01:53.083Z,-1.00
2023-01-28T08:04:22.620Z,-1.00
2023-01-28T08:06:52.459Z,-0.90
2023-01-28T08:09:20.987Z,-0.80
2023-01-28T08:11:49.393Z,-0.80
2023-01-28T08:14:19.272Z,-0.70
2023-01-28T08:16:48.349Z,-0.60
2023-01-28T08:19:18.481Z,-0.50
2023-01-28T08:21:49.108Z,-0.40
2023-01-28T08:24:17.936Z,-0.20
2023-01-28T08:26:49.148Z,-0.10
2023-01-28T08:29:19.377Z,0.00
2023-01-28T08:31:47.852Z,0.10
2023-01-28T08:34:16.338Z,0.30
2023-01-28T08:36:44.747Z,0.50
2023-01-28T08:39:13.289Z,0.70
2023-01-28T08:41:41.758Z,0.90
2023-01-28T08:44:11.221Z,1.10
2023-01-28T08:46:44.205Z,1.20
2023-01-28T08:49:12.717Z,1.30
2023-01-28T08:51:41.160Z,1.50
2023-01-28T08:54:09.639Z,1.60
2023-01-28T08:56:39.171Z,1.70
2023-01-28T08:59:07.557Z,1.80
2023-01-28T09:01:36.552Z,1.90
2023-01-28T09:04:06.957Z,2.00
2023-01-28T09:06:40.168Z,2.00
2023-01-28T09:09:08.599Z,2.10
2023-01-28T09:11:37.030Z,2.10
2023-01-28T09:14:05.440Z,2.10
2023-01-28T09:16:36.823Z,2.10
2023-01-28T09:19:06.743Z,2.10
2023-01-28T09:21:35.208Z,2.20
2023-01-28T09:24:03.671Z,2.20
2023-01-28T09:26:37.217Z,2.30
2023-01-28T09:29:11.619Z,2.40
2023-01-28T09:31:40.135Z,2.50
2023-01-28T09:34:10.195Z,2.70
2023-01-28T09:36:38.684Z,2.80
2023-01-28T09:39:08.484Z,2.80
2023-01-28T09:41:58.677Z,2.70
2023-01-28T09:44:42.040Z,2.70
2023-01-28T09:47:17.693Z,2.70
2023-01-28T09:49:50.384Z,2.60
2023-01-28T09:52:20.645Z,2.60
2023-01-28T09:54:51.936Z,2.60
2023-01-28T09:57:23.874Z,2.60
2023-01-28T09:59:52.992Z,2.50
2023-01-28T10:02:32.532Z,2.40
2023-01-28T10:05:16.366Z,2.50
2023-01-28T10:07:54.179Z,2.50
2023-01-28T10:10:31.246Z,2.50
2023-01-28T10:13:22.140Z,2.50
2023-01-28T10:16:07.393Z,2.50
2023-01-28T10:18:43.364Z,2.50
2023-01-28T10:21:20.390Z,2.40
2023-01-28T10:24:04.719Z,2.40
2023-01-28T10:26:37.101Z,2.40
2023-01-28T10:29:13.349Z,2.30
2023-01-28T10:31:49.442Z,2.40
2023-01-28T10:34:20.058Z,2.50
2023-01-28T10:36:51.388Z,2.40
2023-01-28T10:39:24.840Z,2.40
2023-01-28T10:41:58.191Z,2.30
2023-01-28T10:44:33.152Z,2.50
2023-01-28T10:47:05.172Z,2.60
2023-01-28T10:49:38.944Z,2.60
2023-01-28T10:52:27.317Z,2.70
2023-01-28T10:55:03.149Z,2.90
2023-01-28T10:57:34.465Z,3.00
2023-01-28T11:00:13.034Z,3.00
2023-01-28T11:02:43.174Z,3.10
2023-01-28T11:05:21.048Z,3.20
2023-01-28T11:07:51.242Z,3.40
2023-01-28T11:10:33.855Z,3.60
2023-01-28T11:13:22.412Z,3.80
2023-01-28T11:15:53.986Z,4.00
2023-01-28T11:18:26.075Z,4.10
2023-01-28T11:20:57.897Z,4.10
2023-01-28T11:23:29.763Z,4.10
2023-01-28T11:26:06.907Z,4.10
2023-01-28T11:28:36.465Z,4.10
2023-01-28T11:31:05.700Z,4.10
2023-01-28T11:33:40.146Z,4.10
2023-01-28T11:36:15.639Z,4.10
2023-01-28T11:38:56.375Z,4.20
2023-01-28T11:41:29.541Z,4.20
2023-01-28T11:43:59.596Z,4.10
2023-01-28T11:46:45.894Z,4.10
2023-01-28T11:49:24.902Z,4.00
2023-01-28T11:52:03.300Z,4.10
2023-01-28T11:54:48.955Z,4.10
2023-01-28T11:57:25.518Z,4.00
2023-01-28T12:00:12.761Z,4.00
2023-01-28T12:02:53.008Z,3.80
2023-01-28T12:05:39.236Z,3.50
2023-01-28T12:08:13.893Z,3.60
2023-01-28T12:10:54.896Z,3.60
2023-01-28T12:13:37.597Z,3.60
2023-01-28T12:16:21.966Z,3.60
2023-01-28T12:19:20.685Z,3.70
2023-01-28T12:22:16.055Z,3.70
2023-01-28T12:24:57.630Z,3.80
2023-01-28T12:27:40.874Z,3.80
2023-01-28T12:30:22.783Z,3.80
2023-01-28T12:33:09.573Z,3.90
2023-01-28T12:35:51.529Z,3.90
2023-01-28T12:38:34.419Z,3.90
2023-01-28T12:41:06.169Z,3.90
2023-01-28T12:43:45.671Z,3.80
2023-01-28T12:46:34.063Z,3.80
2023-01-28T12:49:09.374Z,3.90
2023-01-28T12:51:48.419Z,3.90
2023-01-28T12:54:23.054Z,3.80
2023-01-28T12:56:54.845Z,3.80
2023-01-28T12:59:36.084Z,3.70
2023-01-28T13:02:20.305Z,3.70
2023-01-28T13:04:55.683Z,3.70
2023-01-28T13:07:30.497Z,3.70
2023-01-28T13:10:04.952Z,3.80
2023-01-28T13:12:34.457Z,3.80
2023-01-28T13:15:04.892Z,3.80
2023-01-28T13:17:34.065Z,3.70
2023-01-28T13:20:36.907Z,3.70
2023-01-28T13:23:25.837Z,3.70
2023-01-28T13:25:56.266Z,3.60
2023-01-28T13:28:30.109Z,3.60
2023-01-28T13:31:07.868Z,3.60
2023-01-28T13:33:38.666Z,3.50
2023-01-28T13:36:20.370Z,3.50
2023-01-28T13:38:49.399Z,3.60
2023-01-28T13:41:17.944Z,3.60
2023-01-28T13:43:47.602Z,3.60
2023-01-28T13:46:31.312Z,3.60
2023-01-28T13:49:00.905Z,3.60
2023-01-28T13:51:34.184Z,3.70
2023-01-28T13:54:08.702Z,3.70
2023-01-28T13:56:43.495Z,3.80
2023-01-28T13:59:33.197Z,3.80
2023-01-28T14:02:30.224Z,3.70
2023-01-28T14:05:46.651Z,3.70
2023-01-28T14:08:45.030Z,3.80
2023-01-28T14:11:33.645Z,3.70
2023-01-28T14:14:27.303Z,3.70
2023-01-28T14:16:59.662Z,3.60
2023-01-28T14:19:32.945Z,3.50
2023-01-28T14:22:08.268Z,3.50
2023-01-28T14:24:39.076Z,3.50
2023-01-28T14:27:13.266Z,3.50
2023-01-28T14:29:51.684Z,3.40
2023-01-28T14:32:30.917Z,3.50
2023-01-28T14:35:05.487Z,3.40
2023-01-28T14:37:37.815Z,3.40
2023-01-28T14:40:09.894Z,3.50
2023-01-28T14:42:44.588Z,3.50
2023-01-28T14:45:26.937Z,3.50
2023-01-28T14:48:12.185Z,3.50
2023-01-28T14:50:59.520Z,3.50
2023-01-28T14:53:48.450Z,3.60
2023-01-28T14:56:31.691Z,3.50
2023-01-28T14:59:04.285Z,3.50
2023-01-28T15:01:33.616Z,3.50
2023-01-28T15:04:02.914Z,3.50
2023-01-28T15:06:37.790Z,3.50
2023-01-28T15:09:09.489Z,3.50
2023-01-28T15:11:42.346Z,3.50
2023-01-28T15:14:18.135Z,3.60
2023-01-28T15:16:51.907Z,3.60
2023-01-28T15:19:27.030Z,3.60
2023-01-28T15:22:00.057Z,3.50
2023-01-28T15:24:28.270Z,3.50
2023-01-28T15:26:57.915Z,3.50
2023-01-28T15:29:28.753Z,3.50
2023-01-28T15:31:57.944Z,3.50
2023-01-28T15:34:30.527Z,3.50
2023-01-28T15:37:02.477Z,3.50
2023-01-28T15:39:32.143Z,3.50
2023-01-28T15:42:03.392Z,3.50
2023-01-28T15:44:37.435Z,3.50
2023-01-28T15:47:17.104Z,3.50
2023-01-28T15:49:54.774Z,3.40
2023-01-28T15:52:37.344Z,3.50
2023-01-28T15:55:07.128Z,3.40
2023-01-28T15:57:38.001Z,3.40
2023-01-28T16:00:17.492Z,3.40
2023-01-28T16:02:47.266Z,3.30
2023-01-28T16:05:30.575Z,3.30
2023-01-28T16:08:04.073Z,3.30
2023-01-28T16:10:33.664Z,3.30
2023-01-28T16:13:07.416Z,3.30
2023-01-28T16:15:38.777Z,3.40
2023-01-28T16:18:09.034Z,3.30
2023-01-28T16:20:37.556Z,3.30
2023-01-28T16:23:22.808Z,3.30
2023-01-28T16:26:01.405Z,3.30
2023-01-28T16:28:35.918Z,3.30
2023-01-28T16:31:12.253Z,3.30
2023-01-28T16:33:41.124Z,3.30
2023-01-28T16:36:12.271Z,3.20
2023-01-28T16:38:42.476Z,3.30
2023-01-28T16:41:24.547Z,3.30
2023-01-28T16:43:53.333Z,3.30
2023-01-28T16:46:22.043Z,3.30
2023-01-28T16:48:50.943Z,3.30
2023-01-28T16:51:21.074Z,3.30
2023-01-28T16:53:54.145Z,3.40
2023-01-28T16:56:44.085Z,3.40
2023-01-28T16:59:15.895Z,3.40
2023-01-28T17:01:47.639Z,3.40
2023-01-28T17:04:17.767Z,3.40
2023-01-28T17:06:49.594Z,3.40
2023-01-28T17:09:20.294Z,3.40
2023-01-28T17:11:50.718Z,3.40
2023-01-28T17:14:19.684Z,3.40
2023-01-28T17:16:48.504Z,3.40
2023-01-28T17:19:18.995Z,3.40
2023-01-28T17:21:48.154Z,3.40
2023-01-28T17:24:17.632Z,3.50
2023-01-28T17:26:52.198Z,3.50
2023-01-28T17:29:21.342Z,3.50
2023-01-28T17:31:50.627Z,3.50
2023-01-28T17:34:19.546Z,3.60
2023-01-28T17:36:49.065Z,3.60
2023-01-28T17:39:17.794Z,3.60
2023-01-28T17:41:48.677Z,3.60
2023-01-28T17:44:17.595Z,3.60
2023-01-28T17:46:51.095Z,3.70
2023-01-28T17:49:19.949Z,3.70
2023-01-28T17:51:49.255Z,3.70
2023-01-28T17:54:18.029Z,3.70
2023-01-28T17:56:48.125Z,3.70
2023-01-28T17:59:17.681Z,3.80
2023-01-28T18:01:47.672Z,3.80
2023-01-28T18:04:17.897Z,3.80
2023-01-28T18:06:48.874Z,3.80
2023-01-28T18:09:18.127Z,3.80
2023-01-28T18:11:48.414Z,3.80
2023-01-28T18:14:17.594Z,3.80
2023-01-28T18:16:46.217Z,3.80
2023-01-28T18:19:14.925Z,3.80
2023-01-28T18:21:52.594Z,3.80
2023-01-28T18:24:22.027Z,3.70
2023-01-28T18:26:52.080Z,3.80
2023-01-28T18:29:24.334Z,3.70
2023-01-28T18:31:55.534Z,3.70
2023-01-28T18:34:24.783Z,3.70
2023-01-28T18:36:53.436Z,3.70
2023-01-28T18:39:22.771Z,3.70
2023-01-28T18:41:55.183Z,3.80
2023-01-28T18:44:24.599Z,3.80
2023-01-28T18:46:54.105Z,3.70
2023-01-28T18:49:23.316Z,3.70
2023-01-28T18:51:55.071Z,3.70
2023-01-28T18:54:24.014Z,3.70
2023-01-28T18:56:57.296Z,3.70
2023-01-28T18:59:29.176Z,3.70
2023-01-28T19:02:01.160Z,3.70
2023-01-28T19:04:29.998Z,3.70
2023-01-28T19:06:58.822Z,3.70
2023-01-28T19:09:27.828Z,3.80
2023-01-28T19:11:58.655Z,3.80
2023-01-28T19:14:30.186Z,3.80
2023-01-28T19:17:01.328Z,3.90
2023-01-28T19:19:29.836Z,3.90
2023-01-28T19:21:58.667Z,3.90
2023-01-28T19:24:28.774Z,3.90
2023-01-28T19:30:00.419Z,4.00
2023-01-28T19:32:35.987Z,4.00
2023-01-28T19:35:08.895Z,4.00
2023-01-28T19:37:40.865Z,4.00
2023-01-28T19:40:15.916Z,4.00
2023-01-28T19:42:46.654Z,4.00
2023-01-28T19:45:16.544Z,4.10
2023-01-28T19:47:47.488Z,4.10
2023-01-28T19:50:16.975Z,4.00
2023-01-28T19:52:46.617Z,4.00
2023-01-28T19:55:18.137Z,4.10
2023-01-28T19:57:56.095Z,4.10
2023-01-28T20:00:27.964Z,4.10
2023-01-28T20:02:58.434Z,4.10
2023-01-28T20:05:27.849Z,4.10
2023-01-28T20:07:56.691Z,4.10
2023-01-28T20:10:28.305Z,4.20
2023-01-28T20:13:14.823Z,4.20
2023-01-28T20:15:47.236Z,4.20
2023-01-28T20:18:19.966Z,4.20
2023-01-28T20:20:54.633Z,4.20
2023-01-28T20:23:29.979Z,4.20
2023-01-28T20:26:02.414Z,4.20
2023-01-28T20:28:33.866Z,4.30
2023-01-28T20:31:10.087Z,4.30
2023-01-28T20:33:42.114Z,4.30
2023-01-28T20:36:13.748Z,4.30
2023-01-28T20:38:46.198Z,4.30
2023-01-28T20:41:17.083Z,4.40
2023-01-28T20:43:59.684Z,4.30
2023-01-28T20:46:39.330Z,4.40
2023-01-28T20:49:11.596Z,4.40
2023-01-28T20:51:44.781Z,4.40
2023-01-28T20:54:17.817Z,4.40
2023-01-28T20:56:47.236Z,4.40
2023-01-28T20:59:22.888Z,4.40
2023-01-28T21:01:52.348Z,4.50
2023-01-28T21:04:26.076Z,4.50
2023-01-28T21:06:57.323Z,4.50
2023-01-28T21:09:30.401Z,4.50
2023-01-28T21:11:59.387Z,4.50
2023-01-28T21:14:30.315Z,4.50
2023-01-28T21:17:04.363Z,4.50
2023-01-28T21:19:34.644Z,4.50
2023-01-28T21:22:08.525Z,4.50
2023-01-28T21:24:37.656Z,4.60
2023-01-28T21:27:06.673Z,4.50
2023-01-28T21:29:36.904Z,4.50
2023-01-28T21:32:06.322Z,4.60
2023-01-28T21:34:37.907Z,4.60
2023-01-28T21:37:09.205Z,4.60
2023-01-28T21:39:37.786Z,4.60
2023-01-28T21:42:06.718Z,4.50
2023-01-28T21:44:41.515Z,4.50
2023-01-28T21:47:12.566Z,4.60
2023-01-28T21:49:42.462Z,4.60
2023-01-28T21:52:11.027Z,4.60
2023-01-28T21:54:39.725Z,4.60
2023-01-28T21:57:09.527Z,4.60
2023-01-28T21:59:40.815Z,4.60
2023-01-28T22:02:15.850Z,4.60
2023-01-28T22:04:50.366Z,4.60
2023-01-28T22:07:28.036Z,4.70
2023-01-28T22:09:56.832Z,4.70
2023-01-28T22:12:27.611Z,4.70
2023-01-28T22:14:59.955Z,4.70
2023-01-28T22:17:32.097Z,4.70
2023-01-28T22:20:06.056Z,4.70
2023-01-28T22:22:34.556Z,4.70
2023-01-28T22:25:02.975Z,4.70
2023-01-28T22:27:31.427Z,4.70
2023-01-28T22:30:01.352Z,4.80
2023-01-28T22:32:29.924Z,4.80
2023-01-28T22:35:00.223Z,4.80
2023-01-28T22:37:28.664Z,4.80
2023-01-28T22:39:57.099Z,4.70
2023-01-28T22:42:25.707Z,4.80
2023-01-28T22:44:54.186Z,4.70
2023-01-28T22:47:24.105Z,4.80
2023-01-28T22:49:52.504Z,4.80
2023-01-28T22:52:21.019Z,4.80
2023-01-28T22:54:51.644Z,4.80
2023-01-28T22:57:20.155Z,4.90
2023-01-28T22:59:59.776Z,4.90
2023-01-28T23:02:30.457Z,4.90
2023-01-28T23:04:58.956Z,4.90
2023-01-28T23:07:27.427Z,4.90
2023-01-28T23:09:55.876Z,4.90
2023-01-28T23:12:24.346Z,4.90
2023-01-28T23:15:09.954Z,4.90
2023-01-28T23:17:57.484Z,5.00
2023-01-28T23:20:43.714Z,5.00
2023-01-28T23:23:34.509Z,5.00
2023-01-28T23:26:03.125Z,5.00
2023-01-28T23:28:31.535Z,5.00
2023-01-28T23:31:00.245Z,5.00
2023-01-28T23:33:30.305Z,5.00
2023-01-28T23:35:59.345Z,5.00
2023-01-28T23:38:27.923Z,5.10
2023-01-28T23:40:56.370Z,5.10
2023-01-28T23:43:24.843Z,5.10
2023-01-28T23:45:53.239Z,5.10
2023-01-28T23:48:21.743Z,5.10
2023-01-28T23:50:55.787Z,5.10
2023-01-28T23:53:24.225Z,5.10
2023-01-28T23:55:52.584Z,5.10
2023-01-28T23:58:37.501Z,5.10
